KMCE

Merced Regional / Macready Field Airport

Merced, California, USA
METAR KMCE 181353Z AUTO 00000KT 10SM CLR 19/11 A2999 RMK AO2 SLP154 T01890106
Observed Flight Rules
Aug-18 @ 13:53 UTC (58 minutes ago) Visual Flight Rules
Visibility Clouds
10 miles
  • Clear skies
Temperatures Readings
Current 19°C / 66°F
Dewpoint 11°C / 52°F
Humidity 60%
Altimeter 29.99" Hg
Pressure 1015.4 hPa
Elevation 47
METAR KMCE 181353Z AUTO 00000KT 10SM CLR 19/11 A2999 RMK AO2 SLP154 T01890106
Observed Flight Rules
Aug-18 @ 13:53 UTC
(58 minutes ago)
VFR
Clouds
  • Clear skies
Temperature Dewpoint
19°C / 66°F 11°C / 52°F
Humidity Altimeter Pressure
60% 29.99" Hg 1015.4 hPa